sensor_id;sensor_type;location;lat;lon;timestamp;P1;P2;P0
48155;PMS5003;35568;48.104;11.782;2023-07-08T00:01:27;6;6;
48155;PMS5003;35568;48.104;11.782;2023-07-08T00:03:54;8;7;
48155;PMS5003;35568;48.104;11.782;2023-07-08T00:06:22;9;8;
48155;PMS5003;35568;48.104;11.782;2023-07-08T00:08:52;10;9;
48155;PMS5003;35568;48.104;11.782;2023-07-08T00:11:19;11;9;
48155;PMS5003;35568;48.104;11.782;2023-07-08T00:13:46;7;7;
48155;PMS5003;35568;48.104;11.782;2023-07-08T00:16:14;8;8;
48155;PMS5003;35568;48.104;11.782;2023-07-08T00:18:43;8;8;
48155;PMS5003;35568;48.104;11.782;2023-07-08T00:21:10;6;6;
48155;PMS5003;35568;48.104;11.782;2023-07-08T00:23:38;7;7;
48155;PMS5003;35568;48.104;11.782;2023-07-08T00:26:09;8;8;
48155;PMS5003;35568;48.104;11.782;2023-07-08T00:28:39;8;8;
48155;PMS5003;35568;48.104;11.782;2023-07-08T00:31:08;8;8;
48155;PMS5003;35568;48.104;11.782;2023-07-08T00:33:37;9;9;
48155;PMS5003;35568;48.104;11.782;2023-07-08T00:36:07;7;7;
48155;PMS5003;35568;48.104;11.782;2023-07-08T00:38:37;8;8;
48155;PMS5003;35568;48.104;11.782;2023-07-08T00:41:08;8;8;
48155;PMS5003;35568;48.104;11.782;2023-07-08T00:43:39;10;10;
48155;PMS5003;35568;48.104;11.782;2023-07-08T00:46:13;12;11;
48155;PMS5003;35568;48.104;11.782;2023-07-08T00:48:57;9;9;
48155;PMS5003;35568;48.104;11.782;2023-07-08T00:51:35;7;7;
48155;PMS5003;35568;48.104;11.782;2023-07-08T00:54:03;10;9;
48155;PMS5003;35568;48.104;11.782;2023-07-08T00:56:31;9;9;
48155;PMS5003;35568;48.104;11.782;2023-07-08T00:59:03;7;7;
48155;PMS5003;35568;48.104;11.782;2023-07-08T01:01:34;8;7;
48155;PMS5003;35568;48.104;11.782;2023-07-08T01:04:06;7;7;
48155;PMS5003;35568;48.104;11.782;2023-07-08T01:06:38;8;8;
48155;PMS5003;35568;48.104;11.782;2023-07-08T01:09:10;8;7;
48155;PMS5003;35568;48.104;11.782;2023-07-08T01:11:40;7;7;
48155;PMS5003;35568;48.104;11.782;2023-07-08T01:14:08;9;8;
48155;PMS5003;35568;48.104;11.782;2023-07-08T01:16:39;6;6;
48155;PMS5003;35568;48.104;11.782;2023-07-08T01:19:06;8;8;
48155;PMS5003;35568;48.104;11.782;2023-07-08T01:21:44;8;7;
48155;PMS5003;35568;48.104;11.782;2023-07-08T01:24:12;6;6;
48155;PMS5003;35568;48.104;11.782;2023-07-08T01:26:42;10;9;
48155;PMS5003;35568;48.104;11.782;2023-07-08T01:29:11;9;9;
48155;PMS5003;35568;48.104;11.782;2023-07-08T01:31:38;8;8;
48155;PMS5003;35568;48.104;11.782;2023-07-08T01:34:07;6;6;
48155;PMS5003;35568;48.104;11.782;2023-07-08T01:36:37;7;7;
48155;PMS5003;35568;48.104;11.782;2023-07-08T01:39:10;9;8;
48155;PMS5003;35568;48.104;11.782;2023-07-08T01:41:38;11;8;
48155;PMS5003;35568;48.104;11.782;2023-07-08T01:44:18;9;9;
48155;PMS5003;35568;48.104;11.782;2023-07-08T01:46:47;5;5;
48155;PMS5003;35568;48.104;11.782;2023-07-08T01:49:15;7;7;
48155;PMS5003;35568;48.104;11.782;2023-07-08T01:51:42;10;10;
48155;PMS5003;35568;48.104;11.782;2023-07-08T01:54:09;10;9;
48155;PMS5003;35568;48.104;11.782;2023-07-08T01:56:36;6;6;
48155;PMS5003;35568;48.104;11.782;2023-07-08T01:59:02;11;9;
48155;PMS5003;35568;48.104;11.782;2023-07-08T02:01:29;6;6;
48155;PMS5003;35568;48.104;11.782;2023-07-08T02:03:57;9;9;
48155;PMS5003;35568;48.104;11.782;2023-07-08T02:06:23;9;7;
48155;PMS5003;35568;48.104;11.782;2023-07-08T02:08:54;8;7;
48155;PMS5003;35568;48.104;11.782;2023-07-08T02:11:21;6;6;
48155;PMS5003;35568;48.104;11.782;2023-07-08T02:13:49;8;8;
48155;PMS5003;35568;48.104;11.782;2023-07-08T02:16:16;8;7;
48155;PMS5003;35568;48.104;11.782;2023-07-08T02:18:42;8;8;
48155;PMS5003;35568;48.104;11.782;2023-07-08T02:21:09;7;7;
48155;PMS5003;35568;48.104;11.782;2023-07-08T02:23:36;5;4;
48155;PMS5003;35568;48.104;11.782;2023-07-08T02:26:03;8;8;
48155;PMS5003;35568;48.104;11.782;2023-07-08T02:28:30;5;5;
48155;PMS5003;35568;48.104;11.782;2023-07-08T02:31:01;8;8;
48155;PMS5003;35568;48.104;11.782;2023-07-08T02:33:29;9;9;
48155;PMS5003;35568;48.104;11.782;2023-07-08T02:35:55;7;7;
48155;PMS5003;35568;48.104;11.782;2023-07-08T02:38:22;8;7;
48155;PMS5003;35568;48.104;11.782;2023-07-08T02:40:49;9;8;
48155;PMS5003;35568;48.104;11.782;2023-07-08T02:43:16;6;6;
48155;PMS5003;35568;48.104;11.782;2023-07-08T02:45:43;9;8;
48155;PMS5003;35568;48.104;11.782;2023-07-08T02:48:10;5;5;
48155;PMS5003;35568;48.104;11.782;2023-07-08T02:50:36;7;7;
48155;PMS5003;35568;48.104;11.782;2023-07-08T02:53:03;6;6;
48155;PMS5003;35568;48.104;11.782;2023-07-08T02:55:30;8;8;
48155;PMS5003;35568;48.104;11.782;2023-07-08T02:57:57;8;8;
48155;PMS5003;35568;48.104;11.782;2023-07-08T03:03:00;8;8;
48155;PMS5003;35568;48.104;11.782;2023-07-08T03:05:26;7;7;
48155;PMS5003;35568;48.104;11.782;2023-07-08T03:07:53;7;7;
48155;PMS5003;35568;48.104;11.782;2023-07-08T03:10:20;8;8;
48155;PMS5003;35568;48.104;11.782;2023-07-08T03:12:47;8;8;
48155;PMS5003;35568;48.104;11.782;2023-07-08T03:15:13;9;9;
48155;PMS5003;35568;48.104;11.782;2023-07-08T03:17:41;7;6;
48155;PMS5003;35568;48.104;11.782;2023-07-08T03:20:08;8;8;
48155;PMS5003;35568;48.104;11.782;2023-07-08T03:22:36;8;7;
48155;PMS5003;35568;48.104;11.782;2023-07-08T03:25:03;8;8;
48155;PMS5003;35568;48.104;11.782;2023-07-08T03:27:30;7;7;
48155;PMS5003;35568;48.104;11.782;2023-07-08T03:29:58;8;7;
48155;PMS5003;35568;48.104;11.782;2023-07-08T03:32:25;6;6;
48155;PMS5003;35568;48.104;11.782;2023-07-08T03:34:52;8;8;
48155;PMS5003;35568;48.104;11.782;2023-07-08T03:37:19;8;8;
48155;PMS5003;35568;48.104;11.782;2023-07-08T03:39:46;8;7;
48155;PMS5003;35568;48.104;11.782;2023-07-08T03:42:12;8;8;
48155;PMS5003;35568;48.104;11.782;2023-07-08T03:44:39;9;7;
48155;PMS5003;35568;48.104;11.782;2023-07-08T03:47:07;7;6;
48155;PMS5003;35568;48.104;11.782;2023-07-08T03:49:35;8;7;
48155;PMS5003;35568;48.104;11.782;2023-07-08T03:52:02;9;7;
48155;PMS5003;35568;48.104;11.782;2023-07-08T03:54:30;8;7;
48155;PMS5003;35568;48.104;11.782;2023-07-08T03:56:57;7;7;
48155;PMS5003;35568;48.104;11.782;2023-07-08T03:59:23;8;8;
48155;PMS5003;35568;48.104;11.782;2023-07-08T04:01:50;9;8;
48155;PMS5003;35568;48.104;11.782;2023-07-08T04:04:17;8;7;
48155;PMS5003;35568;48.104;11.782;2023-07-08T04:06:44;7;7;
48155;PMS5003;35568;48.104;11.782;2023-07-08T04:09:11;6;6;
48155;PMS5003;35568;48.104;11.782;2023-07-08T04:11:38;7;7;
48155;PMS5003;35568;48.104;11.782;2023-07-08T04:14:05;9;7;
48155;PMS5003;35568;48.104;11.782;2023-07-08T04:16:43;7;7;
48155;PMS5003;35568;48.104;11.782;2023-07-08T04:19:14;7;7;
48155;PMS5003;35568;48.104;11.782;2023-07-08T04:21:42;6;6;
48155;PMS5003;35568;48.104;11.782;2023-07-08T04:24:10;8;7;
48155;PMS5003;35568;48.104;11.782;2023-07-08T04:26:38;8;8;
48155;PMS5003;35568;48.104;11.782;2023-07-08T04:29:06;9;9;
48155;PMS5003;35568;48.104;11.782;2023-07-08T04:31:36;7;7;
48155;PMS5003;35568;48.104;11.782;2023-07-08T04:34:03;7;7;
48155;PMS5003;35568;48.104;11.782;2023-07-08T04:36:30;8;7;
48155;PMS5003;35568;48.104;11.782;2023-07-08T04:38:57;8;8;
48155;PMS5003;35568;48.104;11.782;2023-07-08T04:41:24;8;8;
48155;PMS5003;35568;48.104;11.782;2023-07-08T04:43:50;6;6;
48155;PMS5003;35568;48.104;11.782;2023-07-08T04:46:18;7;6;
48155;PMS5003;35568;48.104;11.782;2023-07-08T04:48:53;7;7;
48155;PMS5003;35568;48.104;11.782;2023-07-08T04:51:20;9;9;
48155;PMS5003;35568;48.104;11.782;2023-07-08T04:53:47;9;7;
48155;PMS5003;35568;48.104;11.782;2023-07-08T04:56:14;8;8;
48155;PMS5003;35568;48.104;11.782;2023-07-08T04:58:41;8;8;
48155;PMS5003;35568;48.104;11.782;2023-07-08T05:01:08;7;7;
48155;PMS5003;35568;48.104;11.782;2023-07-08T05:03:35;9;9;
48155;PMS5003;35568;48.104;11.782;2023-07-08T05:06:02;6;6;
48155;PMS5003;35568;48.104;11.782;2023-07-08T05:08:29;9;9;
48155;PMS5003;35568;48.104;11.782;2023-07-08T05:10:56;7;7;
48155;PMS5003;35568;48.104;11.782;2023-07-08T05:13:23;8;8;
48155;PMS5003;35568;48.104;11.782;2023-07-08T05:15:50;9;9;
48155;PMS5003;35568;48.104;11.782;2023-07-08T05:18:17;10;9;
48155;PMS5003;35568;48.104;11.782;2023-07-08T05:20:49;9;9;
48155;PMS5003;35568;48.104;11.782;2023-07-08T05:23:17;11;9;
48155;PMS5003;35568;48.104;11.782;2023-07-08T05:25:44;9;9;
48155;PMS5003;35568;48.104;11.782;2023-07-08T05:28:11;6;6;
48155;PMS5003;35568;48.104;11.782;2023-07-08T05:30:39;9;9;
48155;PMS5003;35568;48.104;11.782;2023-07-08T05:33:07;7;6;
48155;PMS5003;35568;48.104;11.782;2023-07-08T05:35:34;7;7;
48155;PMS5003;35568;48.104;11.782;2023-07-08T05:38:02;10;10;
48155;PMS5003;35568;48.104;11.782;2023-07-08T05:40:29;9;9;
48155;PMS5003;35568;48.104;11.782;2023-07-08T05:42:57;8;8;
48155;PMS5003;35568;48.104;11.782;2023-07-08T05:45:23;14;13;
48155;PMS5003;35568;48.104;11.782;2023-07-08T05:47:50;7;7;
48155;PMS5003;35568;48.104;11.782;2023-07-08T05:50:17;10;10;
48155;PMS5003;35568;48.104;11.782;2023-07-08T05:52:44;8;7;
48155;PMS5003;35568;48.104;11.782;2023-07-08T05:55:11;11;11;
48155;PMS5003;35568;48.104;11.782;2023-07-08T05:57:37;7;7;
48155;PMS5003;35568;48.104;11.782;2023-07-08T06:00:05;11;10;
48155;PMS5003;35568;48.104;11.782;2023-07-08T06:02:34;8;8;
48155;PMS5003;35568;48.104;11.782;2023-07-08T06:05:00;8;8;
48155;PMS5003;35568;48.104;11.782;2023-07-08T06:07:27;5;5;
48155;PMS5003;35568;48.104;11.782;2023-07-08T06:09:54;6;6;
48155;PMS5003;35568;48.104;11.782;2023-07-08T06:12:21;8;8;
48155;PMS5003;35568;48.104;11.782;2023-07-08T06:14:48;8;7;
48155;PMS5003;35568;48.104;11.782;2023-07-08T06:17:15;9;9;
48155;PMS5003;35568;48.104;11.782;2023-07-08T06:19:42;9;8;
48155;PMS5003;35568;48.104;11.782;2023-07-08T06:22:10;10;9;
48155;PMS5003;35568;48.104;11.782;2023-07-08T06:24:37;9;9;
48155;PMS5003;35568;48.104;11.782;2023-07-08T06:27:04;8;8;
48155;PMS5003;35568;48.104;11.782;2023-07-08T06:29:32;7;6;
48155;PMS5003;35568;48.104;11.782;2023-07-08T06:32:01;9;9;
48155;PMS5003;35568;48.104;11.782;2023-07-08T06:34:30;10;9;
48155;PMS5003;35568;48.104;11.782;2023-07-08T06:36:58;10;10;
48155;PMS5003;35568;48.104;11.782;2023-07-08T06:39:25;12;11;
48155;PMS5003;35568;48.104;11.782;2023-07-08T06:41:52;10;10;
48155;PMS5003;35568;48.104;11.782;2023-07-08T06:44:19;9;9;
48155;PMS5003;35568;48.104;11.782;2023-07-08T06:46:47;12;9;
48155;PMS5003;35568;48.104;11.782;2023-07-08T06:49:13;8;7;
48155;PMS5003;35568;48.104;11.782;2023-07-08T06:51:41;12;11;
48155;PMS5003;35568;48.104;11.782;2023-07-08T06:54:08;8;8;
48155;PMS5003;35568;48.104;11.782;2023-07-08T06:56:35;8;8;
48155;PMS5003;35568;48.104;11.782;2023-07-08T06:59:02;10;9;
48155;PMS5003;35568;48.104;11.782;2023-07-08T07:01:28;8;8;
48155;PMS5003;35568;48.104;11.782;2023-07-08T07:03:55;10;10;
48155;PMS5003;35568;48.104;11.782;2023-07-08T07:06:22;8;7;
48155;PMS5003;35568;48.104;11.782;2023-07-08T07:08:49;8;7;
48155;PMS5003;35568;48.104;11.782;2023-07-08T07:11:16;8;8;
48155;PMS5003;35568;48.104;11.782;2023-07-08T07:13:43;10;10;
48155;PMS5003;35568;48.104;11.782;2023-07-08T07:16:10;8;8;
48155;PMS5003;35568;48.104;11.782;2023-07-08T07:18:37;9;9;
48155;PMS5003;35568;48.104;11.782;2023-07-08T07:21:04;7;7;
48155;PMS5003;35568;48.104;11.782;2023-07-08T07:23:32;6;6;
48155;PMS5003;35568;48.104;11.782;2023-07-08T07:25:58;9;8;
48155;PMS5003;35568;48.104;11.782;2023-07-08T07:28:25;8;8;
48155;PMS5003;35568;48.104;11.782;2023-07-08T07:30:55;10;8;
48155;PMS5003;35568;48.104;11.782;2023-07-08T07:33:23;7;7;
48155;PMS5003;35568;48.104;11.782;2023-07-08T07:35:50;7;6;
48155;PMS5003;35568;48.104;11.782;2023-07-08T07:38:16;10;9;
48155;PMS5003;35568;48.104;11.782;2023-07-08T07:40:43;7;7;
48155;PMS5003;35568;48.104;11.782;2023-07-08T07:43:11;8;7;
48155;PMS5003;35568;48.104;11.782;2023-07-08T07:45:39;6;6;
48155;PMS5003;35568;48.104;11.782;2023-07-08T07:48:06;6;6;
48155;PMS5003;35568;48.104;11.782;2023-07-08T07:50:33;8;7;
48155;PMS5003;35568;48.104;11.782;2023-07-08T07:53:00;8;8;
48155;PMS5003;35568;48.104;11.782;2023-07-08T07:55:27;7;6;
48155;PMS5003;35568;48.104;11.782;2023-07-08T07:57:54;8;8;
48155;PMS5003;35568;48.104;11.782;2023-07-08T08:00:21;7;7;
48155;PMS5003;35568;48.104;11.782;2023-07-08T08:02:48;7;6;
48155;PMS5003;35568;48.104;11.782;2023-07-08T08:05:15;10;7;
48155;PMS5003;35568;48.104;11.782;2023-07-08T08:07:41;6;6;
48155;PMS5003;35568;48.104;11.782;2023-07-08T08:10:08;11;11;
48155;PMS5003;35568;48.104;11.782;2023-07-08T08:12:36;9;9;
48155;PMS5003;35568;48.104;11.782;2023-07-08T08:15:03;8;8;
48155;PMS5003;35568;48.104;11.782;2023-07-08T08:17:30;10;10;
48155;PMS5003;35568;48.104;11.782;2023-07-08T08:19:57;10;10;
48155;PMS5003;35568;48.104;11.782;2023-07-08T08:22:24;10;8;
48155;PMS5003;35568;48.104;11.782;2023-07-08T08:24:51;13;11;
48155;PMS5003;35568;48.104;11.782;2023-07-08T08:27:18;11;11;
48155;PMS5003;35568;48.104;11.782;2023-07-08T08:29:45;8;7;
48155;PMS5003;35568;48.104;11.782;2023-07-08T08:32:12;9;9;
48155;PMS5003;35568;48.104;11.782;2023-07-08T08:34:39;8;8;
48155;PMS5003;35568;48.104;11.782;2023-07-08T08:37:06;9;8;
48155;PMS5003;35568;48.104;11.782;2023-07-08T08:39:32;9;8;
48155;PMS5003;35568;48.104;11.782;2023-07-08T08:41:59;8;8;
48155;PMS5003;35568;48.104;11.782;2023-07-08T08:44:26;8;8;
48155;PMS5003;35568;48.104;11.782;2023-07-08T08:47:00;8;7;
48155;PMS5003;35568;48.104;11.782;2023-07-08T08:49:35;12;11;
48155;PMS5003;35568;48.104;11.782;2023-07-08T08:52:08;10;9;
48155;PMS5003;35568;48.104;11.782;2023-07-08T08:54:35;11;9;
48155;PMS5003;35568;48.104;11.782;2023-07-08T08:57:06;8;8;
48155;PMS5003;35568;48.104;11.782;2023-07-08T08:59:42;11;11;
48155;PMS5003;35568;48.104;11.782;2023-07-08T09:02:18;12;11;
48155;PMS5003;35568;48.104;11.782;2023-07-08T09:04:54;10;10;
48155;PMS5003;35568;48.104;11.782;2023-07-08T09:07:24;9;8;
48155;PMS5003;35568;48.104;11.782;2023-07-08T09:09:53;10;9;
48155;PMS5003;35568;48.104;11.782;2023-07-08T09:12:31;11;11;
48155;PMS5003;35568;48.104;11.782;2023-07-08T09:14:59;12;11;
48155;PMS5003;35568;48.104;11.782;2023-07-08T09:17:37;9;9;
48155;PMS5003;35568;48.104;11.782;2023-07-08T09:20:06;10;10;
48155;PMS5003;35568;48.104;11.782;2023-07-08T09:22:48;7;6;
48155;PMS5003;35568;48.104;11.782;2023-07-08T09:25:24;9;9;
48155;PMS5003;35568;48.104;11.782;2023-07-08T09:27:54;10;9;
48155;PMS5003;35568;48.104;11.782;2023-07-08T09:30:22;10;9;
48155;PMS5003;35568;48.104;11.782;2023-07-08T09:32:50;10;9;
48155;PMS5003;35568;48.104;11.782;2023-07-08T09:35:18;10;10;
48155;PMS5003;35568;48.104;11.782;2023-07-08T09:37:48;10;10;
48155;PMS5003;35568;48.104;11.782;2023-07-08T09:40:17;9;8;
48155;PMS5003;35568;48.104;11.782;2023-07-08T09:42:48;10;10;
48155;PMS5003;35568;48.104;11.782;2023-07-08T09:45:17;8;8;
48155;PMS5003;35568;48.104;11.782;2023-07-08T09:47:46;7;7;
48155;PMS5003;35568;48.104;11.782;2023-07-08T09:50:19;12;11;
48155;PMS5003;35568;48.104;11.782;2023-07-08T09:52:48;8;8;
48155;PMS5003;35568;48.104;11.782;2023-07-08T09:55:16;9;8;
48155;PMS5003;35568;48.104;11.782;2023-07-08T09:57:45;7;7;
48155;PMS5003;35568;48.104;11.782;2023-07-08T10:00:14;6;6;
48155;PMS5003;35568;48.104;11.782;2023-07-08T10:02:44;6;6;
48155;PMS5003;35568;48.104;11.782;2023-07-08T10:05:15;8;8;
48155;PMS5003;35568;48.104;11.782;2023-07-08T10:07:45;7;7;
48155;PMS5003;35568;48.104;11.782;2023-07-08T10:10:14;9;9;
48155;PMS5003;35568;48.104;11.782;2023-07-08T10:12:46;9;9;
48155;PMS5003;35568;48.104;11.782;2023-07-08T10:15:23;6;6;
48155;PMS5003;35568;48.104;11.782;2023-07-08T10:17:55;8;8;
48155;PMS5003;35568;48.104;11.782;2023-07-08T10:20:34;7;7;
48155;PMS5003;35568;48.104;11.782;2023-07-08T10:23:14;8;7;
48155;PMS5003;35568;48.104;11.782;2023-07-08T10:25:53;8;8;
48155;PMS5003;35568;48.104;11.782;2023-07-08T10:28:28;9;8;
48155;PMS5003;35568;48.104;11.782;2023-07-08T10:31:07;7;7;
48155;PMS5003;35568;48.104;11.782;2023-07-08T10:33:48;8;7;
48155;PMS5003;35568;48.104;11.782;2023-07-08T10:36:37;7;6;
48155;PMS5003;35568;48.104;11.782;2023-07-08T10:39:14;9;9;
48155;PMS5003;35568;48.104;11.782;2023-07-08T10:41:56;7;7;
48155;PMS5003;35568;48.104;11.782;2023-07-08T10:44:35;6;6;
48155;PMS5003;35568;48.104;11.782;2023-07-08T10:47:12;7;7;
48155;PMS5003;35568;48.104;11.782;2023-07-08T10:49:53;6;6;
48155;PMS5003;35568;48.104;11.782;2023-07-08T10:52:33;8;7;
48155;PMS5003;35568;48.104;11.782;2023-07-08T10:55:15;8;8;
48155;PMS5003;35568;48.104;11.782;2023-07-08T10:57:54;7;6;
48155;PMS5003;35568;48.104;11.782;2023-07-08T11:00:43;8;7;
48155;PMS5003;35568;48.104;11.782;2023-07-08T11:03:38;7;7;
48155;PMS5003;35568;48.104;11.782;2023-07-08T11:06:21;9;8;
48155;PMS5003;35568;48.104;11.782;2023-07-08T11:08:53;7;6;
48155;PMS5003;35568;48.104;11.782;2023-07-08T11:11:27;8;7;
48155;PMS5003;35568;48.104;11.782;2023-07-08T11:14:03;9;8;
48155;PMS5003;35568;48.104;11.782;2023-07-08T11:16:37;8;7;
48155;PMS5003;35568;48.104;11.782;2023-07-08T11:19:11;6;6;
48155;PMS5003;35568;48.104;11.782;2023-07-08T11:21:52;7;7;
48155;PMS5003;35568;48.104;11.782;2023-07-08T11:24:24;6;6;
48155;PMS5003;35568;48.104;11.782;2023-07-08T11:26:59;7;7;
48155;PMS5003;35568;48.104;11.782;2023-07-08T11:29:37;6;6;
48155;PMS5003;35568;48.104;11.782;2023-07-08T11:32:09;9;9;
48155;PMS5003;35568;48.104;11.782;2023-07-08T11:34:40;7;7;
48155;PMS5003;35568;48.104;11.782;2023-07-08T11:37:10;8;8;
48155;PMS5003;35568;48.104;11.782;2023-07-08T11:39:39;6;6;
48155;PMS5003;35568;48.104;11.782;2023-07-08T11:42:13;8;8;
48155;PMS5003;35568;48.104;11.782;2023-07-08T11:44:46;6;6;
48155;PMS5003;35568;48.104;11.782;2023-07-08T11:47:17;8;7;
48155;PMS5003;35568;48.104;11.782;2023-07-08T11:49:45;8;8;
48155;PMS5003;35568;48.104;11.782;2023-07-08T11:52:16;8;8;
48155;PMS5003;35568;48.104;11.782;2023-07-08T11:54:46;10;8;
48155;PMS5003;35568;48.104;11.782;2023-07-08T11:57:16;7;6;
48155;PMS5003;35568;48.104;11.782;2023-07-08T11:59:44;7;7;
48155;PMS5003;35568;48.104;11.782;2023-07-08T12:02:13;9;8;
48155;PMS5003;35568;48.104;11.782;2023-07-08T12:04:59;10;8;
48155;PMS5003;35568;48.104;11.782;2023-07-08T12:07:32;8;7;
48155;PMS5003;35568;48.104;11.782;2023-07-08T12:10:04;9;8;
48155;PMS5003;35568;48.104;11.782;2023-07-08T12:12:37;7;6;
48155;PMS5003;35568;48.104;11.782;2023-07-08T12:15:11;8;6;
48155;PMS5003;35568;48.104;11.782;2023-07-08T12:17:42;8;8;
48155;PMS5003;35568;48.104;11.782;2023-07-08T12:20:16;9;8;
48155;PMS5003;35568;48.104;11.782;2023-07-08T12:22:47;7;6;
48155;PMS5003;35568;48.104;11.782;2023-07-08T12:25:14;6;5;
48155;PMS5003;35568;48.104;11.782;2023-07-08T12:27:44;10;9;
48155;PMS5003;35568;48.104;11.782;2023-07-08T12:30:12;8;7;
48155;PMS5003;35568;48.104;11.782;2023-07-08T12:32:43;6;6;
48155;PMS5003;35568;48.104;11.782;2023-07-08T12:35:16;8;8;
48155;PMS5003;35568;48.104;11.782;2023-07-08T12:37:48;9;8;
48155;PMS5003;35568;48.104;11.782;2023-07-08T12:40:16;5;5;
48155;PMS5003;35568;48.104;11.782;2023-07-08T12:42:43;6;5;
48155;PMS5003;35568;48.104;11.782;2023-07-08T12:45:13;4;4;
48155;PMS5003;35568;48.104;11.782;2023-07-08T12:47:42;5;5;
48155;PMS5003;35568;48.104;11.782;2023-07-08T12:50:11;6;6;
48155;PMS5003;35568;48.104;11.782;2023-07-08T12:52:40;6;5;
48155;PMS5003;35568;48.104;11.782;2023-07-08T12:55:10;7;7;
48155;PMS5003;35568;48.104;11.782;2023-07-08T12:57:39;4;4;
48155;PMS5003;35568;48.104;11.782;2023-07-08T13:00:10;5;5;
48155;PMS5003;35568;48.104;11.782;2023-07-08T13:02:43;6;6;
48155;PMS5003;35568;48.104;11.782;2023-07-08T13:05:11;6;6;
48155;PMS5003;35568;48.104;11.782;2023-07-08T13:07:39;8;8;
48155;PMS5003;35568;48.104;11.782;2023-07-08T13:10:13;7;5;
48155;PMS5003;35568;48.104;11.782;2023-07-08T13:12:47;5;5;
48155;PMS5003;35568;48.104;11.782;2023-07-08T13:15:19;5;5;
48155;PMS5003;35568;48.104;11.782;2023-07-08T13:17:51;7;7;
48155;PMS5003;35568;48.104;11.782;2023-07-08T13:20:18;7;7;
48155;PMS5003;35568;48.104;11.782;2023-07-08T13:22:49;6;6;
48155;PMS5003;35568;48.104;11.782;2023-07-08T13:25:25;6;5;
48155;PMS5003;35568;48.104;11.782;2023-07-08T13:27:56;7;6;
48155;PMS5003;35568;48.104;11.782;2023-07-08T13:30:26;6;6;
48155;PMS5003;35568;48.104;11.782;2023-07-08T13:32:56;4;4;
48155;PMS5003;35568;48.104;11.782;2023-07-08T13:35:25;6;6;
48155;PMS5003;35568;48.104;11.782;2023-07-08T13:37:55;4;4;
48155;PMS5003;35568;48.104;11.782;2023-07-08T13:40:22;4;4;
48155;PMS5003;35568;48.104;11.782;2023-07-08T13:42:54;4;4;
48155;PMS5003;35568;48.104;11.782;2023-07-08T13:45:23;2;2;
48155;PMS5003;35568;48.104;11.782;2023-07-08T13:48:00;5;4;
48155;PMS5003;35568;48.104;11.782;2023-07-08T13:50:44;3;3;
48155;PMS5003;35568;48.104;11.782;2023-07-08T13:53:16;2;2;
48155;PMS5003;35568;48.104;11.782;2023-07-08T13:55:45;2;2;
48155;PMS5003;35568;48.104;11.782;2023-07-08T13:58:14;5;4;
48155;PMS5003;35568;48.104;11.782;2023-07-08T14:00:43;3;3;
48155;PMS5003;35568;48.104;11.782;2023-07-08T14:03:11;4;4;
48155;PMS5003;35568;48.104;11.782;2023-07-08T14:05:39;5;5;
48155;PMS5003;35568;48.104;11.782;2023-07-08T14:08:09;4;4;
48155;PMS5003;35568;48.104;11.782;2023-07-08T14:10:39;4;3;
48155;PMS5003;35568;48.104;11.782;2023-07-08T14:13:06;5;4;
48155;PMS5003;35568;48.104;11.782;2023-07-08T14:15:34;4;3;
48155;PMS5003;35568;48.104;11.782;2023-07-08T14:18:00;3;3;
48155;PMS5003;35568;48.104;11.782;2023-07-08T14:20:28;3;3;
48155;PMS5003;35568;48.104;11.782;2023-07-08T14:22:56;6;5;
48155;PMS5003;35568;48.104;11.782;2023-07-08T14:25:24;3;3;
48155;PMS5003;35568;48.104;11.782;2023-07-08T14:27:51;4;4;
48155;PMS5003;35568;48.104;11.782;2023-07-08T14:30:18;5;4;
48155;PMS5003;35568;48.104;11.782;2023-07-08T14:32:44;6;6;
48155;PMS5003;35568;48.104;11.782;2023-07-08T14:35:15;4;4;
48155;PMS5003;35568;48.104;11.782;2023-07-08T14:37:45;4;4;
48155;PMS5003;35568;48.104;11.782;2023-07-08T14:40:22;6;5;
48155;PMS5003;35568;48.104;11.782;2023-07-08T14:42:54;7;7;
48155;PMS5003;35568;48.104;11.782;2023-07-08T14:45:26;13;12;
48155;PMS5003;35568;48.104;11.782;2023-07-08T14:47:55;6;5;
48155;PMS5003;35568;48.104;11.782;2023-07-08T14:50:23;7;7;
48155;PMS5003;35568;48.104;11.782;2023-07-08T14:52:50;4;3;
48155;PMS5003;35568;48.104;11.782;2023-07-08T14:55:17;3;3;
48155;PMS5003;35568;48.104;11.782;2023-07-08T14:57:45;3;2;
48155;PMS5003;35568;48.104;11.782;2023-07-08T15:00:15;5;4;
48155;PMS5003;35568;48.104;11.782;2023-07-08T15:02:45;5;3;
48155;PMS5003;35568;48.104;11.782;2023-07-08T15:05:15;3;3;
48155;PMS5003;35568;48.104;11.782;2023-07-08T15:07:44;3;3;
48155;PMS5003;35568;48.104;11.782;2023-07-08T15:10:14;3;3;
48155;PMS5003;35568;48.104;11.782;2023-07-08T15:12:41;4;4;
48155;PMS5003;35568;48.104;11.782;2023-07-08T15:15:13;4;4;
48155;PMS5003;35568;48.104;11.782;2023-07-08T15:17:43;7;6;
48155;PMS5003;35568;48.104;11.782;2023-07-08T15:20:11;3;3;
48155;PMS5003;35568;48.104;11.782;2023-07-08T15:22:40;5;5;
48155;PMS5003;35568;48.104;11.782;2023-07-08T15:25:09;5;5;
48155;PMS5003;35568;48.104;11.782;2023-07-08T15:27:37;4;4;
48155;PMS5003;35568;48.104;11.782;2023-07-08T15:30:05;4;4;
48155;PMS5003;35568;48.104;11.782;2023-07-08T15:32:42;4;4;
48155;PMS5003;35568;48.104;11.782;2023-07-08T15:35:11;3;3;
48155;PMS5003;35568;48.104;11.782;2023-07-08T15:37:41;5;5;
48155;PMS5003;35568;48.104;11.782;2023-07-08T15:40:08;6;5;
48155;PMS5003;35568;48.104;11.782;2023-07-08T15:42:37;6;4;
48155;PMS5003;35568;48.104;11.782;2023-07-08T15:45:15;3;3;
48155;PMS5003;35568;48.104;11.782;2023-07-08T15:47:48;5;5;
48155;PMS5003;35568;48.104;11.782;2023-07-08T15:50:17;5;4;
48155;PMS5003;35568;48.104;11.782;2023-07-08T15:52:45;4;4;
48155;PMS5003;35568;48.104;11.782;2023-07-08T15:55:13;4;4;
48155;PMS5003;35568;48.104;11.782;2023-07-08T15:57:44;7;6;
48155;PMS5003;35568;48.104;11.782;2023-07-08T16:00:15;5;5;
48155;PMS5003;35568;48.104;11.782;2023-07-08T16:02:45;5;5;
48155;PMS5003;35568;48.104;11.782;2023-07-08T16:05:12;6;5;
48155;PMS5003;35568;48.104;11.782;2023-07-08T16:07:39;4;4;
48155;PMS5003;35568;48.104;11.782;2023-07-08T16:10:07;5;5;
48155;PMS5003;35568;48.104;11.782;2023-07-08T16:12:34;5;5;
48155;PMS5003;35568;48.104;11.782;2023-07-08T16:15:01;6;6;
48155;PMS5003;35568;48.104;11.782;2023-07-08T16:17:30;6;6;
48155;PMS5003;35568;48.104;11.782;2023-07-08T16:20:01;4;4;
48155;PMS5003;35568;48.104;11.782;2023-07-08T16:22:28;10;8;
48155;PMS5003;35568;48.104;11.782;2023-07-08T16:24:55;7;6;
48155;PMS5003;35568;48.104;11.782;2023-07-08T16:27:21;4;4;
48155;PMS5003;35568;48.104;11.782;2023-07-08T16:29:48;6;5;
48155;PMS5003;35568;48.104;11.782;2023-07-08T16:32:15;5;4;
48155;PMS5003;35568;48.104;11.782;2023-07-08T16:34:42;4;4;
48155;PMS5003;35568;48.104;11.782;2023-07-08T16:37:09;5;4;
48155;PMS5003;35568;48.104;11.782;2023-07-08T16:39:35;5;5;
48155;PMS5003;35568;48.104;11.782;2023-07-08T16:42:02;6;5;
48155;PMS5003;35568;48.104;11.782;2023-07-08T16:44:30;5;5;
48155;PMS5003;35568;48.104;11.782;2023-07-08T16:46:57;5;5;
48155;PMS5003;35568;48.104;11.782;2023-07-08T16:49:23;7;6;